ولاية سيدي بلعباس, الجزائر

02:43 PM CET on وèلهبر 01, 2014 (GMT +0100)
Es Senia | Change Station
CLOSE
Current Station
Airport
Location: Oran,
Elevation: 295 ft
Nearby Weather Stations

Elev 295 ft 35.63 °N, 0.60 °W | Updated 13 minutes ago

Clear
صافية
73 °F
Feels Like 73 °F
N
9
ريح متغير ريح from شمال

هذا اليوم
High -- | Low -- °F
--% Chance of Precip.
Yesterday
High -- | Low -- °F
Precip. -- في
7:23 AM 6:08 PM
الأحدب الأول, 66% visible
الضغط 30.18 في
وضوح الرؤية -9999.0 أميال
سحابات
نقطة الندى 54 °F
الرطوبة 50%
Rainfall 0.00 في
عمق الثلج Not available.
الأشعة فوق البنفسجية Not available.
Pollen Not available.
جودة الهواء Not available.
Flu Activity Not available.
METAR DAOO 011330Z 36008KT CAVOK 23/12 Q1022

More Conditions Fewer Conditions

الضغط 30.18 في
وضوح الرؤية -9999.0 أميال
سحابات
نقطة الندى 54 °F
الرطوبة 50%
Rainfall 0.00 في
عمق الثلج Not available.
الأشعة فوق البنفسجية Not available.
Pollen Not available.
جودة الهواء Not available.
Flu Activity Not available.
METAR DAOO 011330Z 36008KT CAVOK 23/12 Q1022

More Conditions Fewer Conditions

10-Day Weather Forecast

Almanac

علم الفلك

Nov. 01, 2014 Rise Set
Actual Time
Civil Twilight
Nautical Twilight
Astronomical Twilight
قمر
Length Of Visible Light
طول الیوم
Tomorrow will be .
, % of the Moon is Illuminated

Today's Extremes

Country Highs Country Lows

Community

WunderPhotos

Upload Photos

1,766,937 photos uploaded!

WunderBlogs® & News

Nearby

جودة الهواء

  جودة الهواء AQ Index Pollutant
Not available.

عمق الثلج

Station Depth Elevation

Earthquake Activity

City Distance Mag. Time & Date
Minimum magnitude displayed is 2.5.

Coastal Water Temperatures

مكان درجات الحرارة

Nearby Weather Stations